Observations for FAIRFORD RAF, United Kingdom (EGVA)

EGVA 200556Z AUTO 00000KT 9999 CLR 06/06 A3046 RMK AO2 SLP318 T00640057 10113 20060 53003 VISNO RWY27 $ 
EGVA 200456Z AUTO 00000KT 9999 CLR 06/05 A3045 RMK AO2 SLP315 T00640049 VISNO RWY27 $   
EGVA 200356Z AUTO 00000KT 9999 CLR 07/06 A3044 RMK AO2 SLP311 T00700061 VISNO RWY27 $   
EGVA 200256Z AUTO 04003KT 9999 CLR 09/06 A3045 RMK AO2 SLP314 T00860060 53001 VISNO RWY27 $ 
EGVA 200156Z AUTO 00000KT 9999 CLR 08/05 A3045 RMK AO2 SLP314 T00820053 VISNO RWY27 $   
EGVA 200056Z AUTO 05004KT 9999 CLR 09/06 A3044 RMK AO2 SLP311 T00850058 VISNO RWY27 $   
EGVA 192356Z AUTO 00000KT 9999 CLR 11/06 A3044 RMK AO2 SLP311 60000 T01110064 10208 20109 402220073 51005 VISNO RWY27 $ 
EGVA 192256Z AUTO 00000KT 9999 CLR 12/07 A3044 RMK AO2 SLP311 T01190070 VISNO RWY27 $   
EGVA 192156Z AUTO 05006KT 9999 CLR 14/07 A3044 RMK AO2 SLP311 T01440067 VISNO RWY27 $   
EGVA 192056Z AUTO 04006KT 9999 CLR 15/08 A3043 RMK AO2 SLP308 60000 T01510079 52015 VISNO RWY27 $   
EGVA 191956Z AUTO 01006KT 9999 CLR 17/07 A3042 RMK AO2 SLP305 T01710072 VISNO RWY27 $   
EGVA 191856Z AUTO 01004KT 9999 CLR 20/07 A3040 RMK AO2 DZE41RAB41E49 SLP297 P0000 T01950069 VISNO RWY27 $   
EGVA 191849Z AUTO 02004KT 9999 CLR 20/07 A3040 RMK AO2 DZE41RAB41E49 SLP297 VISNO RWY27 $
EGVA 191756Z AUTO 05004KT 9999 -DZ CLR 21/06 A3038 RMK AO2 DZB17E22RAB22E32DZB35E36RAB36E53DZB53 SLP291 P0000 60000 T02070059 10222 20198 53006 VISNO RWY27 $   
EGVA 191656Z AUTO 06009KT 9999 CLR 22/07 A3037 RMK AO2 SLP287 T02160070 VISNO RWY27 $   
EGVA 191556Z AUTO 05007KT 9999 CLR 22/07 A3036 RMK AO2 SLP284 T02200074 VISNO RWY27 $   
EGVA 191456Z AUTO 08007KT 9999 CLR 22/07 A3036 RMK AO2 SLP283 T02210071 58004 VISNO RWY27 $ 
EGVA 191356Z AUTO 06012KT 9999 CLR 22/08 A3038 RMK AO2 SLP290 T02160078 VISNO RWY27 $   
EGVA 191256Z AUTO 07009KT 9999 CLR 21/08 A3038 RMK AO2 SLP290 T02080081 VISNO RWY27 $   
EGVA 191156Z AUTO 07009KT 9999 FEW200 20/08 A3038 RMK AO2 SLP291 T02000083 10200 20073 50000 VISNO RWY27 $  
EGVA 191056Z AUTO 06010KT 9999 CLR 19/08 A3038 RMK AO2 SLP291 T01870081 VISNO RWY27 $   
EGVA 190956Z AUTO 05006KT 9999 FEW210 16/08 A3038 RMK AO2 SLP291 T01590084 VISNO RWY27 $
EGVA 190856Z AUTO 05006KT 9999 CLR 14/08 A3037 RMK AO2 SLP288 T01390079 51010 VISNO RWY27 $ 
EGVA 190756Z AUTO 06007KT 9999 CLR 12/07 A3037 RMK AO2 SLP288 T01160073 VISNO RWY27 $   
EGVA 190656Z AUTO 06005KT 9999 CLR 09/07 A3035 RMK AO2 SLP281 T00920066 VISNO RWY27 $   
EGVA 190556Z AUTO 05005KT 9999 CLR 08/06 A3034 RMK AO2 SLP278 T00750056 10109 20075 52010 VISNO RWY27 $